Time;durP1;ratioP1;P1;durP2;ratioP2;P2;SDS_P1;SDS_P2;PMS_P1;PMS_P2;Temp;Humidity;BMP_temperature;BMP_pressure;BME280_temperature;BME280_humidity;BME280_pressure;Samples;Min_cycle;Max_cycle;Signal;HPM_P1;HPM_P2
2022/04/06 00:00:31;;;;;;;0.57;0.57;;;9.80;97.60;9.10;97591.00;;;;5034638;28;20224;-73
2022/04/06 00:02:58;;;;;;;0.80;0.80;;;9.80;97.70;9.20;97599.00;;;;5034658;28;20660;-73
2022/04/06 00:05:25;;;;;;;0.60;0.60;;;9.90;97.70;9.30;97592.00;;;;5034653;28;20263;-72
2022/04/06 00:07:52;;;;;;;1.37;1.00;;;9.90;97.40;9.30;97587.00;;;;5034486;28;20620;-73
2022/04/06 00:10:18;;;;;;;0.77;0.77;;;9.90;97.20;9.20;97584.00;;;;5034500;28;20651;-72
2022/04/06 00:12:45;;;;;;;0.60;0.60;;;9.90;97.30;9.20;97585.00;;;;5034615;28;20220;-72
2022/04/06 00:15:12;;;;;;;2.30;0.90;;;9.90;97.40;9.20;97590.00;;;;5033919;28;20249;-72
2022/04/06 00:17:40;;;;;;;0.83;0.83;;;9.90;97.80;9.20;97586.00;;;;5034430;28;20200;-72
2022/04/06 00:20:10;;;;;;;0.83;0.83;;;9.90;97.80;9.20;97585.00;;;;5034620;28;20218;-72
2022/04/06 00:22:37;;;;;;;0.67;0.67;;;9.90;97.60;9.30;97555.00;;;;5034340;28;20247;-72
2022/04/06 00:25:08;;;;;;;0.53;0.53;;;9.90;97.60;9.20;97570.00;;;;5034152;28;20259;-73
2022/04/06 00:27:37;;;;;;;0.60;0.60;;;10.00;97.40;9.30;97579.00;;;;5017027;28;20197;-72
2022/04/06 00:30:06;;;;;;;0.67;0.67;;;9.90;97.90;9.40;97564.00;;;;5034359;28;20224;-72
2022/04/06 00:32:33;;;;;;;4.63;1.50;;;10.00;96.50;9.30;97567.00;;;;5034058;28;20244;-73
2022/04/06 00:37:43;;;;;;;0.77;0.77;;;10.00;96.70;9.40;97565.00;;;;5034275;28;20555;-72
2022/04/06 00:40:11;;;;;;;0.70;0.70;;;10.10;96.30;9.40;97561.00;;;;5034121;28;20220;-72
2022/04/06 00:42:37;;;;;;;0.60;0.60;;;10.10;96.30;9.30;97556.00;;;;5034299;28;20312;-72
2022/04/06 00:45:06;;;;;;;1.00;1.00;;;10.00;96.40;9.40;97559.00;;;;5033711;28;20373;-72
2022/04/06 00:47:32;;;;;;;1.97;0.97;;;10.10;96.60;9.30;97555.00;;;;5034027;28;20207;-72
2022/04/06 00:50:01;;;;;;;1.10;1.10;;;10.00;96.80;9.20;97560.00;;;;5033683;28;20219;-72
2022/04/06 00:52:30;;;;;;;0.83;0.83;;;9.90;97.40;9.30;97557.00;;;;5033612;28;20243;-72
2022/04/06 00:54:58;;;;;;;1.27;1.17;;;9.90;97.40;9.30;97557.00;;;;5032691;28;20262;-73
2022/04/06 00:57:25;;;;;;;0.97;0.97;;;9.90;97.20;9.30;97556.00;;;;5033666;28;20204;-72
2022/04/06 00:59:54;;;;;;;1.30;1.30;;;10.00;97.00;9.30;97549.00;;;;5033674;28;20220;-72
2022/04/06 01:02:21;;;;;;;0.60;0.60;;;9.90;97.10;9.30;97550.00;;;;5033619;28;20232;-74
2022/04/06 01:04:47;;;;;;;0.90;0.90;;;9.90;97.40;9.20;97533.00;;;;5033568;28;20319;-72
2022/04/06 01:07:14;;;;;;;9.43;1.13;;;9.90;97.40;9.20;97545.00;;;;5033600;28;20279;-72
2022/04/06 01:09:41;;;;;;;0.80;0.80;;;9.90;97.50;9.30;97538.00;;;;5033491;28;20203;-72
2022/04/06 01:12:08;;;;;;;0.90;0.90;;;9.90;97.40;9.20;97534.00;;;;5033569;28;20307;-72
2022/04/06 01:14:39;;;;;;;0.80;0.80;;;9.90;97.30;9.20;97532.00;;;;5033475;28;20315;-72
2022/04/06 01:17:09;;;;;;;0.60;0.60;;;9.90;97.50;9.30;97538.00;;;;5038505;28;20219;-72
2022/04/06 01:19:38;;;;;;;0.60;0.60;;;9.90;97.40;9.30;97535.00;;;;5036552;28;20282;-72
2022/04/06 01:22:10;;;;;;;0.63;0.63;;;10.00;97.20;9.30;97537.00;;;;5033774;28;20221;-72
2022/04/06 01:24:41;;;;;;;0.77;0.77;;;10.00;97.20;9.30;97531.00;;;;5033449;28;20289;-72
2022/04/06 01:27:11;;;;;;;0.70;0.70;;;10.00;97.10;9.30;97532.00;;;;5033391;28;20224;-73
2022/04/06 01:29:38;;;;;;;0.80;0.80;;;10.00;97.10;9.30;97537.00;;;;5016061;28;20258;-73
2022/04/06 01:32:11;;;;;;;0.83;0.83;;;10.00;97.00;9.30;97526.00;;;;5033203;28;20239;-73
2022/04/06 01:34:39;;;;;;;0.90;0.90;;;10.00;97.20;9.30;97537.00;;;;5016040;28;20620;-72
2022/04/06 01:37:11;;;;;;;1.07;1.07;;;9.90;97.10;9.20;97529.00;;;;5033207;28;20197;-72
2022/04/06 01:39:41;;;;;;;1.00;1.00;;;9.90;97.20;9.20;97535.00;;;;5033146;28;20220;-72
2022/04/06 01:42:10;;;;;;;0.70;0.70;;;9.90;97.30;9.30;97536.00;;;;5015782;28;20262;-73
2022/04/06 01:44:38;;;;;;;0.60;0.60;;;9.90;97.40;9.20;97536.00;;;;5033109;28;20286;-73
2022/04/06 01:47:08;;;;;;;1.13;1.03;;;9.90;97.30;9.20;97531.00;;;;5033317;28;20694;-73
2022/04/06 01:52:22;;;;;;;0.60;0.60;;;9.90;97.50;9.20;97525.00;;;;5033139;28;20283;-72
2022/04/06 01:54:52;;;;;;;0.50;0.50;;;9.90;97.50;9.20;97523.00;;;;5015915;28;20298;-73
2022/04/06 01:57:21;;;;;;;0.80;0.80;;;9.90;97.60;9.20;97529.00;;;;5015934;28;20583;-73
2022/04/06 01:59:48;;;;;;;0.53;0.53;;;9.90;98.20;9.20;97526.00;;;;5033248;28;20225;-73
2022/04/06 02:02:18;;;;;;;0.77;0.77;;;9.90;97.50;9.20;97522.00;;;;5032969;28;20205;-74
2022/04/06 02:04:45;;;;;;;0.70;0.70;;;9.90;97.50;9.20;97518.00;;;;5032846;28;20212;-72
2022/04/06 02:07:13;;;;;;;1.00;1.00;;;9.90;98.20;9.10;97511.00;;;;5036344;28;20278;-72
2022/04/06 02:09:41;;;;;;;0.87;0.87;;;9.90;97.50;9.20;97519.00;;;;5036689;28;20196;-72
2022/04/06 02:12:10;;;;;;;0.93;0.93;;;9.90;97.40;9.20;97511.00;;;;5019077;28;20560;-72
2022/04/06 02:14:39;;;;;;;0.73;0.73;;;9.90;97.10;9.40;97512.00;;;;5036701;28;20201;-72
2022/04/06 02:17:07;;;;;;;0.70;0.70;;;9.90;97.30;9.30;97511.00;;;;5036678;28;20273;-73
2022/04/06 02:19:38;;;;;;;0.70;0.70;;;10.00;96.70;9.20;97509.00;;;;5036676;28;20231;-72
2022/04/06 02:22:07;;;;;;;0.60;0.60;;;9.90;96.90;9.30;97500.00;;;;5037264;28;20284;-73
2022/04/06 02:24:35;;;;;;;0.90;0.90;;;10.00;96.70;9.40;97511.00;;;;5036975;28;20221;-72
2022/04/06 02:27:04;;;;;;;0.80;0.80;;;10.00;96.60;9.30;97502.00;;;;5037345;28;20224;-72
2022/04/06 02:29:33;;;;;;;0.70;0.70;;;10.00;96.60;9.30;97505.00;;;;5037059;28;20177;-72
2022/04/06 02:32:00;;;;;;;0.80;0.80;;;10.00;96.60;9.30;97501.00;;;;5018810;28;20619;-73
2022/04/06 02:34:26;;;;;;;0.80;0.80;;;10.00;97.00;9.30;97504.00;;;;5035949;28;20207;-73
2022/04/06 02:36:53;;;;;;;0.83;0.83;;;9.90;97.20;9.30;97505.00;;;;5036395;28;20239;-72
2022/04/06 02:39:19;;;;;;;0.87;0.87;;;9.90;97.00;9.20;97503.00;;;;5018560;28;20259;-72
2022/04/06 02:41:46;;;;;;;1.10;1.10;;;9.90;97.30;9.30;97498.00;;;;5036406;28;20251;-72
2022/04/06 02:44:15;;;;;;;1.20;1.20;;;10.00;97.00;9.30;97494.00;;;;5035680;28;20216;-72
2022/04/06 02:46:41;;;;;;;1.10;1.03;;;9.90;97.10;9.30;97496.00;;;;5035880;28;20200;-73
2022/04/06 02:49:08;;;;;;;1.27;1.27;;;9.90;97.30;9.10;97492.00;;;;5036393;28;20205;-72
2022/04/06 02:51:35;;;;;;;1.43;1.37;;;9.80;97.90;9.10;97495.00;;;;5036851;28;20224;-72
2022/04/06 02:54:02;;;;;;;0.77;0.77;;;9.80;97.80;9.30;97489.00;;;;5037133;28;20208;-72
2022/04/06 02:56:28;;;;;;;0.63;0.63;;;10.00;97.30;9.30;97445.00;;;;5047545;28;20567;-72
2022/04/06 02:58:55;;;;;;;0.87;0.87;;;9.90;97.70;9.30;97483.00;;;;5024477;28;20220;-72
2022/04/06 03:01:22;;;;;;;0.90;0.90;;;9.90;97.70;9.30;97489.00;;;;5039241;28;20254;-73
2022/04/06 03:03:51;;;;;;;0.87;0.87;;;9.90;97.90;9.10;97474.00;;;;5036029;28;20715;-72
2022/04/06 03:06:17;;;;;;;0.83;0.83;;;9.80;98.40;9.00;97472.00;;;;5035688;28;20201;-72
2022/04/06 03:08:45;;;;;;;0.97;0.97;;;9.80;98.50;9.00;97473.00;;;;5035382;28;20189;-72
2022/04/06 03:11:14;;;;;;;1.00;1.00;;;9.70;99.20;9.10;97471.00;;;;5035274;28;20216;-72
2022/04/06 03:13:43;;;;;;;1.03;1.03;;;9.70;99.30;9.00;97468.00;;;;5035281;28;20212;-72
2022/04/06 03:16:10;;;;;;;1.50;1.17;;;9.70;99.50;8.90;97461.00;;;;5035243;28;20201;-73
2022/04/06 03:18:37;;;;;;;6.10;1.10;;;9.60;99.80;9.00;97467.00;;;;5034130;28;20260;-73
2022/04/06 03:21:03;;;;;;;0.70;0.70;;;9.60;99.60;8.90;97458.00;;;;5035168;28;20224;-72
2022/04/06 03:23:32;;;;;;;0.80;0.80;;;9.60;99.60;8.90;97461.00;;;;5035171;28;20555;-73
2022/04/06 03:25:59;;;;;;;0.83;0.83;;;9.60;99.90;9.00;97465.00;;;;5035035;28;20667;-74
2022/04/06 03:28:25;;;;;;;1.27;1.03;;;9.60;99.70;8.90;97459.00;;;;5017709;28;20231;-73
2022/04/06 03:30:51;;;;;;;0.60;0.60;;;9.60;99.60;9.00;97456.00;;;;5034984;28;20211;-72
2022/04/06 03:33:18;;;;;;;0.80;0.80;;;9.60;99.80;8.80;97457.00;;;;5017915;28;20277;-73
2022/04/06 03:35:45;;;;;;;0.60;0.60;;;9.60;99.40;8.90;97458.00;;;;5035305;28;20581;-72
2022/04/06 03:38:14;;;;;;;0.67;0.67;;;9.60;99.70;9.00;97451.00;;;;5034939;28;20224;-72
2022/04/06 03:40:41;;;;;;;1.30;1.20;;;9.60;99.60;9.10;97445.00;;;;5035071;28;20196;-72
2022/04/06 03:43:09;;;;;;;0.90;0.90;;;9.70;98.60;9.00;97451.00;;;;5034676;28;20240;-72
2022/04/06 03:45:36;;;;;;;0.87;0.87;;;9.70;98.90;9.00;97456.00;;;;5034753;28;20668;-71
2022/04/06 03:48:03;;;;;;;0.60;0.60;;;9.70;98.90;9.10;97449.00;;;;5034688;28;20350;-71
2022/04/06 03:50:29;;;;;;;0.80;0.80;;;9.70;98.60;9.20;97450.00;;;;5034877;28;20207;-71
2022/04/06 03:52:59;;;;;;;0.67;0.67;;;9.80;98.80;9.00;97456.00;;;;5017188;28;20566;-72
2022/04/06 03:55:26;;;;;;;1.03;1.03;;;9.70;98.80;9.00;97451.00;;;;5034648;28;20204;-72
2022/04/06 03:57:52;;;;;;;0.80;0.80;;;9.70;98.80;9.10;97446.00;;;;5034517;28;20228;-71
2022/04/06 04:00:19;;;;;;;1.17;1.17;;;9.70;98.40;9.00;97454.00;;;;5035019;28;20213;-71
2022/04/06 04:02:46;;;;;;;0.73;0.73;;;9.70;98.60;8.90;97440.00;;;;5035065;28;20851;-71
2022/04/06 04:05:13;;;;;;;0.83;0.83;;;9.70;98.70;8.90;97443.00;;;;5038827;28;20229;-72
2022/04/06 04:07:40;;;;;;;0.60;0.60;;;9.60;99.10;8.90;97449.00;;;;5037502;28;20236;-71
2022/04/06 04:10:09;;;;;;;1.40;1.40;;;9.60;99.30;9.00;97444.00;;;;5035723;28;20347;-71
2022/04/06 04:12:39;;;;;;;1.03;1.03;;;9.70;99.30;8.90;97452.00;;;;5034419;28;20185;-72
2022/04/06 04:15:07;;;;;;;1.20;1.20;;;9.60;99.10;9.00;97447.00;;;;5034397;28;20211;-72
2022/04/06 04:17:33;;;;;;;1.50;1.40;;;9.70;99.40;9.00;97439.00;;;;5034289;28;20184;-72
2022/04/06 04:20:00;;;;;;;0.70;0.70;;;9.60;99.60;9.00;97449.00;;;;5034346;28;20217;-72
2022/04/06 04:22:26;;;;;;;0.70;0.70;;;9.70;99.30;9.00;97444.00;;;;5034383;28;20235;-73
2022/04/06 04:24:53;;;;;;;0.80;0.80;;;9.60;99.60;8.90;97440.00;;;;5034140;28;20320;-72
2022/04/06 04:27:20;;;;;;;0.80;0.80;;;9.60;99.60;8.90;97444.00;;;;5034158;28;20684;-73
2022/04/06 04:29:49;;;;;;;0.80;0.80;;;9.60;99.70;8.90;97443.00;;;;5034038;28;20201;-72
2022/04/06 04:32:16;;;;;;;0.67;0.67;;;9.60;99.90;8.80;97436.00;;;;5034420;28;20213;-73
2022/04/06 04:34:43;;;;;;;1.27;1.17;;;9.50;99.90;8.90;97440.00;;;;5034150;28;20207;-72
2022/04/06 04:37:12;;;;;;;0.70;0.70;;;9.60;99.90;8.80;97440.00;;;;5033982;28;20208;-73
2022/04/06 04:39:39;;;;;;;0.77;0.77;;;9.50;99.90;8.90;97438.00;;;;5034383;28;20228;-73
2022/04/06 04:42:06;;;;;;;1.33;1.33;;;9.60;99.90;8.80;97428.00;;;;5033914;28;20280;-73
2022/04/06 04:44:36;;;;;;;1.80;1.33;;;9.50;99.90;8.90;97425.00;;;;5016710;28;20228;-72
2022/04/06 04:47:02;;;;;;;1.50;1.40;;;9.50;99.90;8.80;97415.00;;;;5033720;28;20536;-72
2022/04/06 04:49:29;;;;;;;0.87;0.87;;;9.40;99.90;9.00;97420.00;;;;5033787;28;20249;-72
2022/04/06 04:51:56;;;;;;;0.70;0.70;;;9.50;99.90;8.70;97413.00;;;;5033645;28;20299;-73
2022/04/06 04:54:26;;;;;;;1.27;1.27;;;9.50;99.90;8.90;97416.00;;;;5033711;28;20209;-71
2022/04/06 04:56:52;;;;;;;0.80;0.80;;;9.60;99.90;8.90;97427.00;;;;5033970;28;20282;-71
2022/04/06 04:59:19;;;;;;;0.83;0.83;;;9.50;99.90;8.80;97426.00;;;;5033830;28;20239;-73
2022/04/06 05:01:46;;;;;;;0.70;0.70;;;9.50;99.90;8.90;97429.00;;;;5033630;28;20287;-72
2022/04/06 05:04:13;;;;;;;1.40;1.33;;;9.50;99.90;8.90;97419.00;;;;5033464;28;20691;-72
2022/04/06 05:06:40;;;;;;;0.60;0.60;;;9.50;99.90;8.80;97419.00;;;;5016266;28;20538;-72
2022/04/06 05:09:06;;;;;;;1.03;1.03;;;9.50;99.90;8.80;97419.00;;;;5033539;28;20208;-72
2022/04/06 05:11:33;;;;;;;1.27;1.27;;;9.50;99.90;8.80;97419.00;;;;5015994;28;20224;-73
2022/04/06 05:14:00;;;;;;;1.00;1.00;;;9.50;99.90;8.80;97418.00;;;;5033414;28;20197;-73
2022/04/06 05:16:26;;;;;;;0.50;0.50;;;9.50;99.90;8.90;97420.00;;;;5033460;28;20632;-73
2022/04/06 05:18:55;;;;;;;1.00;1.00;;;9.50;99.90;8.90;97413.00;;;;5016155;28;20311;-72
2022/04/06 05:21:21;;;;;;;1.03;1.00;;;9.50;99.90;8.80;97409.00;;;;5033516;28;20589;-72
2022/04/06 05:23:48;;;;;;;1.00;1.00;;;9.50;99.90;8.70;97406.00;;;;5033376;28;20211;-72
2022/04/06 05:26:14;;;;;;;0.90;0.90;;;9.50;99.90;8.90;97409.00;;;;5033359;28;20286;-72
2022/04/06 05:28:43;;;;;;;1.30;1.27;;;9.50;99.90;8.90;97414.00;;;;5033347;28;20223;-72
2022/04/06 05:31:10;;;;;;;1.00;1.00;;;9.60;99.90;9.00;97403.00;;;;5033226;28;20228;-72
2022/04/06 05:33:39;;;;;;;1.20;1.03;;;9.60;99.90;9.00;97415.00;;;;5033351;28;20546;-72
2022/04/06 05:36:06;;;;;;;1.80;1.57;;;9.60;99.90;9.00;97409.00;;;;5033323;28;20189;-71
2022/04/06 05:38:34;;;;;;;1.17;0.93;;;9.70;99.70;8.90;97407.00;;;;5033119;28;20232;-72
2022/04/06 05:41:01;;;;;;;1.10;1.10;;;9.70;99.90;8.90;97378.00;;;;5034647;28;20211;-71
2022/04/06 05:43:29;;;;;;;0.80;0.80;;;9.60;99.90;9.00;97406.00;;;;5036745;28;20197;-72
2022/04/06 05:45:56;;;;;;;1.03;1.00;;;9.70;99.90;9.00;97411.00;;;;5036618;28;20224;-73
2022/04/06 05:48:22;;;;;;;0.83;0.83;;;9.60;99.90;9.10;97406.00;;;;5036777;28;20339;-72
2022/04/06 05:50:50;;;;;;;0.80;0.80;;;9.70;99.90;9.10;97413.00;;;;5036791;28;20267;-72
2022/04/06 05:53:17;;;;;;;1.03;1.03;;;9.70;99.90;9.30;97411.00;;;;5036580;28;20296;-72
2022/04/06 05:55:45;;;;;;;1.70;1.30;;;9.80;99.50;9.20;97410.00;;;;5036526;28;20279;-72
2022/04/06 05:58:12;;;;;;;1.20;1.20;;;9.80;99.20;9.40;97412.00;;;;5036507;28;20230;-72
2022/04/06 06:00:41;;;;;;;0.80;0.80;;;10.00;97.80;9.30;97414.00;;;;5036396;28;20644;-72
2022/04/06 06:03:08;;;;;;;0.87;0.87;;;10.00;97.90;9.30;97409.00;;;;5036284;28;20308;-72
2022/04/06 06:05:35;;;;;;;1.10;1.00;;;10.00;98.50;9.20;97412.00;;;;5036312;28;20691;-72
2022/04/06 06:08:01;;;;;;;0.70;0.70;;;9.90;99.00;9.20;97420.00;;;;5036393;28;20197;-72
2022/04/06 06:10:28;;;;;;;0.70;0.70;;;9.90;99.20;9.30;97422.00;;;;5019749;28;20203;-72
2022/04/06 06:12:55;;;;;;;0.90;0.90;;;9.90;99.10;9.30;97415.00;;;;5040483;28;20256;-72
2022/04/06 06:15:21;;;;;;;0.80;0.80;;;9.90;99.30;9.40;97405.00;;;;5038121;28;20719;-73
2022/04/06 06:17:51;;;;;;;2.40;1.17;;;10.00;99.10;9.40;97409.00;;;;5019451;28;20225;-72
2022/04/06 06:20:17;;;;;;;0.67;0.67;;;10.10;99.10;9.60;97403.00;;;;5036249;28;20205;-72
2022/04/06 06:22:46;;;;;;;0.90;0.90;;;10.20;97.90;9.60;97406.00;;;;5036158;28;20213;-72
2022/04/06 06:25:13;;;;;;;0.80;0.80;;;10.20;97.80;9.60;97411.00;;;;5035864;28;20274;-72
2022/04/06 06:27:42;;;;;;;0.90;0.90;;;10.20;97.70;9.60;97401.00;;;;5036004;28;20278;-72
2022/04/06 06:30:13;;;;;;;0.80;0.80;;;10.20;97.60;9.60;97407.00;;;;5035774;28;20552;-73
2022/04/06 06:32:40;;;;;;;0.80;0.80;;;10.20;97.70;9.60;97417.00;;;;5036056;28;20632;-72
2022/04/06 06:35:08;;;;;;;0.80;0.80;;;10.20;97.60;9.60;97409.00;;;;5035902;28;20713;-72
2022/04/06 06:37:36;;;;;;;0.87;0.87;;;10.30;97.80;9.70;97405.00;;;;5035760;28;20212;-72
2022/04/06 06:40:04;;;;;;;0.70;0.70;;;10.40;97.60;9.70;97418.00;;;;5035994;28;20189;-72
2022/04/06 06:42:33;;;;;;;0.63;0.63;;;10.30;97.60;9.80;97418.00;;;;5035851;28;20224;-71
2022/04/06 06:45:00;;;;;;;0.83;0.83;;;10.40;97.70;9.80;97399.00;;;;5035777;28;20913;-70
2022/04/06 06:47:27;;;;;;;0.57;0.57;;;10.40;96.90;9.90;97410.00;;;;5035736;28;20644;-69
2022/04/06 06:49:53;;;;;;;0.80;0.80;;;10.50;96.00;10.10;97404.00;;;;5035641;28;20247;-69
2022/04/06 06:52:20;;;;;;;0.87;0.87;;;10.60;96.00;10.20;97404.00;;;;5035682;28;20287;-69
2022/04/06 06:54:46;;;;;;;0.50;0.50;;;10.70;95.90;10.10;97409.00;;;;5035446;28;20246;-69
2022/04/06 06:57:18;;;;;;;0.80;0.80;;;10.70;94.70;10.00;97420.00;;;;5035685;28;20224;-69
2022/04/06 06:59:45;;;;;;;0.90;0.90;;;10.60;95.40;10.10;97411.00;;;;5018175;28;20282;-70
2022/04/06 07:02:12;;;;;;;0.70;0.70;;;10.70;94.60;10.10;97409.00;;;;5035425;28;20232;-71
2022/04/06 07:04:39;;;;;;;0.63;0.63;;;10.70;95.20;10.00;97413.00;;;;5035558;28;20255;-71
2022/04/06 07:07:08;;;;;;;0.57;0.57;;;10.70;95.20;10.20;97403.00;;;;5018097;28;20215;-70
2022/04/06 07:09:35;;;;;;;0.83;0.83;;;10.80;94.50;10.10;97409.00;;;;5035537;28;20295;-70
2022/04/06 07:12:01;;;;;;;0.67;0.67;;;10.80;94.60;10.10;97400.00;;;;5035540;28;20305;-70
2022/04/06 07:14:28;;;;;;;1.13;1.07;;;10.70;95.00;10.10;97394.00;;;;5035335;28;20204;-69
2022/04/06 07:16:54;;;;;;;0.70;0.70;;;10.80;94.60;10.20;97404.00;;;;5036084;28;20216;-69
2022/04/06 07:19:22;;;;;;;0.90;0.90;;;10.80;94.70;10.20;97397.00;;;;5036529;28;20279;-70
2022/04/06 07:21:49;;;;;;;0.93;0.93;;;10.80;94.70;10.20;97398.00;;;;5041513;28;20679;-70
2022/04/06 07:24:15;;;;;;;0.60;0.60;;;10.80;93.90;10.20;97401.00;;;;5035568;28;20212;-70
2022/04/06 07:26:42;;;;;;;0.87;0.87;;;10.90;94.40;10.20;97392.00;;;;5036218;28;20691;-70
2022/04/06 07:29:11;;;;;;;0.60;0.60;;;10.90;93.60;10.30;97392.00;;;;5035512;28;20244;-70
2022/04/06 07:31:41;;;;;;;1.23;0.80;;;10.90;94.00;10.30;97406.00;;;;5017976;28;20644;-71
2022/04/06 07:34:08;;;;;;;1.03;1.03;;;11.00;93.70;10.40;97402.00;;;;5034915;28;20260;-70
2022/04/06 07:36:35;;;;;;;0.70;0.70;;;11.00;93.70;10.40;97393.00;;;;5035062;28;20637;-71
2022/04/06 07:39:05;;;;;;;0.90;0.90;;;11.00;93.70;10.50;97389.00;;;;5017674;28;20201;-70
2022/04/06 07:41:33;;;;;;;1.03;1.03;;;11.10;93.80;10.50;97390.00;;;;5034940;28;20228;-71
2022/04/06 07:44:02;;;;;;;0.93;0.93;;;11.10;93.30;10.60;97386.00;;;;5034792;28;20632;-70
2022/04/06 07:46:29;;;;;;;0.60;0.60;;;11.10;93.30;10.60;97390.00;;;;5034714;28;20320;-71
2022/04/06 07:48:56;;;;;;;0.60;0.60;;;11.20;92.60;10.60;97390.00;;;;5034626;28;20280;-69
2022/04/06 07:51:25;;;;;;;0.60;0.60;;;11.20;92.60;10.60;97378.00;;;;5034679;28;20192;-69
2022/04/06 07:53:52;;;;;;;0.60;0.60;;;11.30;93.10;10.80;97384.00;;;;5034561;28;20223;-69
2022/04/06 07:56:19;;;;;;;0.80;0.80;;;11.30;92.50;10.80;97383.00;;;;5034483;28;20193;-71
2022/04/06 07:58:45;;;;;;;0.90;0.90;;;11.40;92.60;11.00;97387.00;;;;5034531;28;20216;-71
2022/04/06 08:01:12;;;;;;;0.60;0.60;;;11.50;92.30;11.10;97384.00;;;;5034722;28;20204;-71
2022/04/06 08:03:39;;;;;;;1.23;1.17;;;11.60;92.60;11.10;97378.00;;;;5034022;28;20341;-69
2022/04/06 08:06:05;;;;;;;0.67;0.67;;;11.70;92.10;11.20;97376.00;;;;5016898;28;20260;-69
2022/04/06 08:08:33;;;;;;;0.60;0.60;;;11.70;92.00;11.20;97360.00;;;;5034398;28;20197;-70
2022/04/06 08:11:00;;;;;;;0.70;0.70;;;11.80;90.50;11.30;97379.00;;;;5034362;28;20227;-69
2022/04/06 08:13:27;;;;;;;1.07;1.07;;;11.80;91.30;11.50;97383.00;;;;5034620;28;20284;-69
2022/04/06 08:15:53;;;;;;;0.70;0.70;;;12.00;90.30;11.60;97387.00;;;;5034337;28;20621;-69
2022/04/06 08:18:22;;;;;;;1.23;0.83;;;12.00;89.00;11.40;97386.00;;;;5034168;28;20248;-69
2022/04/06 08:20:49;;;;;;;0.90;0.90;;;12.00;88.80;11.20;97388.00;;;;5034233;28;20193;-69
2022/04/06 08:23:17;;;;;;;0.70;0.70;;;11.90;88.60;11.30;97385.00;;;;5034172;28;20200;-70
2022/04/06 08:25:44;;;;;;;0.60;0.60;;;11.90;88.60;11.30;97381.00;;;;5034112;28;20225;-70
2022/04/06 08:28:11;;;;;;;0.90;0.90;;;11.90;88.30;11.30;97378.00;;;;5034101;28;20203;-69
2022/04/06 08:30:40;;;;;;;0.60;0.60;;;11.90;88.60;11.20;97367.00;;;;5034250;28;20644;-70
2022/04/06 08:33:07;;;;;;;0.50;0.50;;;11.80;88.90;11.30;97377.00;;;;5034798;28;20219;-70
2022/04/06 08:35:34;;;;;;;0.83;0.83;;;11.90;88.30;11.40;97381.00;;;;5037052;28;20279;-70
2022/04/06 08:38:02;;;;;;;0.50;0.50;;;12.00;87.00;11.30;97371.00;;;;5017013;28;20315;-70
2022/04/06 08:40:33;;;;;;;0.60;0.60;;;11.90;84.00;11.30;97380.00;;;;5034070;28;20315;-69
2022/04/06 08:43:00;;;;;;;0.70;0.70;;;11.90;82.80;11.50;97369.00;;;;5034055;28;20299;-70
2022/04/06 08:45:28;;;;;;;0.57;0.57;;;12.00;80.70;11.40;97378.00;;;;5033745;28;20586;-71
2022/04/06 08:47:57;;;;;;;0.63;0.63;;;11.90;76.20;11.30;97377.00;;;;5033917;28;20200;-70
2022/04/06 08:50:29;;;;;;;0.60;0.60;;;11.90;72.70;11.40;97381.00;;;;5016844;28;20251;-70
2022/04/06 08:52:57;;;;;;;0.50;0.50;;;11.90;72.10;11.50;97378.00;;;;5033818;28;20220;-70
2022/04/06 08:55:26;;;;;;;0.50;0.50;;;12.00;71.10;11.50;97370.00;;;;5033784;28;20196;-71
2022/04/06 08:57:52;;;;;;;0.67;0.63;;;12.00;70.80;11.50;97366.00;;;;5033627;28;20652;-70
2022/04/06 09:00:19;;;;;;;0.70;0.70;;;12.10;68.90;11.50;97369.00;;;;5033438;28;20209;-70
2022/04/06 09:02:47;;;;;;;0.50;0.50;;;12.10;66.00;11.60;97375.00;;;;5033697;28;20200;-71
2022/04/06 09:05:13;;;;;;;0.50;0.50;;;12.20;64.00;12.10;97370.00;;;;5033520;28;20216;-70
2022/04/06 09:07:43;;;;;;;0.60;0.60;;;12.50;63.00;12.40;97366.00;;;;5033594;28;20204;-70
2022/04/06 09:10:10;;;;;;;0.60;0.60;;;12.80;60.10;12.30;97355.00;;;;5033894;28;20251;-70
2022/04/06 09:12:39;;;;;;;0.50;0.50;;;12.80;59.00;12.30;97367.00;;;;5033878;28;20225;-70
2022/04/06 09:15:10;;;;;;;0.70;0.70;;;12.90;57.20;12.20;97355.00;;;;5032722;28;20224;-70
2022/04/06 09:17:48;;;;;;;0.60;0.60;;;12.80;57.80;12.50;97363.00;;;;5033541;28;20315;-70
2022/04/06 09:20:25;;;;;;;0.70;0.70;;;;;12.60;97360.00;;;;5033424;28;20192;-70
2022/04/06 09:22:51;;;;;;;0.77;0.77;;;13.10;56.30;12.60;97372.00;;;;5033397;28;20227;-70
2022/04/06 09:25:20;;;;;;;0.50;0.50;;;13.10;57.50;12.70;97360.00;;;;5033491;28;20672;-70
2022/04/06 09:27:47;;;;;;;1.07;0.80;;;13.20;57.70;12.80;97356.00;;;;5033419;28;20505;-69
2022/04/06 09:30:14;;;;;;;0.50;0.50;;;13.30;56.70;13.00;97366.00;;;;5033276;28;20193;-70
2022/04/06 09:32:42;;;;;;;0.60;0.60;;;13.40;56.50;13.20;97356.00;;;;5033381;28;20309;-69
2022/04/06 09:35:29;;;;;;;0.60;0.60;;;13.60;55.80;13.00;97346.00;;;;5033219;28;20212;-69
2022/04/06 09:38:12;;;;;;;0.60;0.60;;;13.60;53.80;13.40;97350.00;;;;5033335;28;20200;-70
2022/04/06 09:40:40;;;;;;;0.70;0.70;;;13.90;54.90;13.40;97355.00;;;;5033195;28;20197;-71
2022/04/06 09:43:07;;;;;;;0.50;0.50;;;13.90;54.10;13.30;97353.00;;;;5033104;28;20281;-69
2022/04/06 09:48:19;;;;;;;0.60;0.60;;;13.80;52.00;13.00;97342.00;;;;5032995;28;20207;-71
2022/04/06 09:50:57;;;;;;;0.80;0.80;;;13.60;52.80;13.10;97347.00;;;;5033184;28;20606;-69
2022/04/06 09:53:27;;;;;;;0.50;0.50;;;13.70;53.60;13.40;97338.00;;;;5033056;28;20212;-69
2022/04/06 09:55:57;;;;;;;0.50;0.50;;;13.90;53.60;13.30;97306.00;;;;5032965;28;20228;-71
2022/04/06 09:58:24;;;;;;;0.60;0.60;;;13.90;53.80;13.20;97333.00;;;;5033011;28;20192;-70
2022/04/06 10:00:52;;;;;;;0.43;0.43;;;13.80;54.00;12.90;97330.00;;;;5032924;28;20647;-70
2022/04/06 10:03:21;;;;;;;0.70;0.70;;;13.60;53.20;13.10;97332.00;;;;5032968;28;20208;-71
2022/04/06 10:05:51;;;;;;;0.53;0.53;;;13.70;54.50;13.00;97332.00;;;;5032863;28;20224;-70
2022/04/06 10:08:19;;;;;;;0.50;0.50;;;13.50;53.80;13.20;97326.00;;;;5032852;28;20232;-70
2022/04/06 10:10:53;;;;;;;0.50;0.50;;;13.70;52.40;13.20;97320.00;;;;5032896;28;20287;-71
2022/04/06 10:13:20;;;;;;;0.50;0.50;;;13.70;52.80;13.20;97317.00;;;;5033025;28;20209;-71
2022/04/06 10:15:49;;;;;;;0.60;0.60;;;13.70;52.30;13.30;97316.00;;;;5032997;28;20196;-70
2022/04/06 10:18:17;;;;;;;0.60;0.60;;;13.90;52.30;13.60;97323.00;;;;5032758;28;20200;-70
2022/04/06 10:20:52;;;;;;;0.50;0.50;;;14.10;51.30;13.40;97307.00;;;;5032632;28;20236;-70
2022/04/06 10:23:39;;;;;;;0.50;0.50;;;14.00;47.50;13.50;97301.00;;;;5032723;28;20211;-70
2022/04/06 10:26:19;;;;;;;1.07;0.90;;;14.00;48.80;13.80;97305.00;;;;5032733;28;20224;-71
2022/04/06 10:28:49;;;;;;;0.60;0.60;;;14.20;48.30;13.80;97304.00;;;;5035841;28;20228;-69
2022/04/06 10:31:22;;;;;;;0.60;0.60;;;14.30;47.90;13.40;97294.00;;;;5018521;28;20227;-71
2022/04/06 10:33:52;;;;;;;0.50;0.50;;;14.00;47.40;13.40;97279.00;;;;5018432;28;20282;-72
2022/04/06 10:36:21;;;;;;;0.70;0.70;;;14.00;48.30;14.00;97285.00;;;;5036163;28;20197;-71
2022/04/06 10:39:16;;;;;;;0.70;0.70;;;14.40;47.30;14.00;97290.00;;;;5035979;28;20205;-70
2022/04/06 10:42:13;;;;;;;0.60;0.60;;;14.50;45.20;13.80;97274.00;;;;5018871;28;20216;-69
2022/04/06 10:44:43;;;;;;;0.63;0.63;;;14.40;46.60;14.00;97283.00;;;;5018737;28;20196;-70
2022/04/06 10:47:12;;;;;;;0.70;0.70;;;14.50;46.30;14.10;97287.00;;;;5035729;28;20549;-71
2022/04/06 10:49:40;;;;;;;0.50;0.50;;;14.60;45.60;13.90;97265.00;;;;5018231;28;20548;-70
2022/04/06 10:52:26;;;;;;;0.47;0.47;;;14.50;47.40;14.10;97280.00;;;;5035702;28;20258;-70
2022/04/06 10:54:57;;;;;;;0.50;0.50;;;14.60;47.10;13.90;97272.00;;;;5035618;28;20674;-70
2022/04/06 10:57:57;;;;;;;0.60;0.60;;;14.60;45.10;13.90;97266.00;;;;5035650;28;20227;-70
2022/04/06 11:00:25;;;;;;;0.50;0.50;;;14.40;45.90;14.10;97266.00;;;;5035868;28;20256;-71
2022/04/06 11:02:54;;;;;;;0.60;0.60;;;14.60;46.30;14.30;97239.00;;;;5035488;28;20216;-71
2022/04/06 11:05:46;;;;;;;0.70;0.70;;;14.80;47.00;14.80;97248.00;;;;5035372;28;20232;-71
2022/04/06 11:11:45;;;;;;;0.50;0.50;;;15.50;44.50;14.80;97232.00;;;;5035477;28;20219;-73
2022/04/06 11:14:27;;;;;;;0.50;0.50;;;15.30;44.20;14.90;97230.00;;;;5035389;28;20189;-71
2022/04/06 11:16:54;;;;;;;0.60;0.60;;;15.30;43.90;14.70;97228.00;;;;5035554;28;20200;-73
2022/04/06 11:19:21;;;;;;;0.40;0.40;;;15.40;43.60;14.40;97230.00;;;;5035348;28;20233;-74